LiveATC.Net - Listen to live air traffic control over the Internet!


ICAO: FMEE  IATA: RUN   Airport: Roland Garros Airport
City: Sainte-Marie
Country: Reunion   Continent: Africa
FMEE METAR Weather: FMEE 181530Z AUTO 12016KT 9999 FEW031 21/17 Q1023 TEMPO 4500 SHRA
FMEE Flight Activity (FlightAware)

FMEE Tower
Feed Status: UP   Listeners: 3
Listen in your browser - HTML5 player (in browser, HTML5)
Click here to listen with your own player (launches your MP3 player)
FMEE Tower Audio Archives
FacilityFrequency
Gillot Tower118.400

NOTICE

Unauthorized use prohibited. See LiveATC.net Terms of Service


Find LiveATC Audio Streams


Airport/ARTCC Code

Frequency Search
(e.g., 124.400, 128.75)
Site-wide search
 


Browse LiveATC Feeds
Top 50 LiveATC Feeds
LiveATC Feed Map
Bad Weather Areas

LiveATC FAQ
Offer LiveATC feed
Contact LiveATC.net
Press Inquiries

LiveATC on iPhone
LiveATC on Android

Windows Phone
Windows 8/10

LiveATC Mobile
(Mobile browser)

ATC Audio Archives
Interesting Recordings

LiveATC Forums


Home Page
About LiveATC.net
Make a Donation
Terms of Use
Privacy Policy

Canadian Air Freqs

AIRMETs/SIGMETs

FAA Airport Status
Nat'l Airspace Status
Arrival Demand Charts


Server Software By:
Icecast.org
Liquidsoap